In Rescue
 
Open Full Screen Window  High Contrast Mode
July 25, 2021 9:44 AM EDT
Weather Information
Wind Direction
  ---
Wind Speed
  00 kt (0 mph)
Wind Gust
  00 kt (0 mph)
Altimeter
29.95 in
Visibility
7 SM
Temperature
22° C
72° F
Dewpoint
20° C
68° F
Humidity
88%
1hr Rain Fall
00.00 in.
24hr Rain Fall
00.09 in.
Sky Condition
Overcast @ 1,500 ft
Scattered @ 600 ft
MVFR

METAR KPOV 251344Z AUTO 00000KT 7SM SCT006 OVC015 22/20 A2995 RMK AO2 T02210200 PWINO

FAA Disclaimer: The data displayed is for advisory purposes only and is not to be used for flight planning or operations.